Time;durP1;ratioP1;P1;durP2;ratioP2;P2;SDS_P1;SDS_P2;PMS_P1;PMS_P2;Temp;Humidity;BMP_temperature;BMP_pressure;BME280_temperature;BME280_humidity;BME280_pressure;Samples;Min_cycle;Max_cycle;Signal;HPM_P1;HPM_P2
2022/08/16 00:01:47;;;;;;;8.68;2.70;;;;;;;;;;3347361;42;20178;-61
2022/08/16 00:04:18;;;;;;;8.05;3.08;;;;;;;;;;3360542;42;20106;-61
2022/08/16 00:06:49;;;;;;;9.32;3.20;;;;;;;;;;3362079;42;20570;-61
2022/08/16 00:09:20;;;;;;;7.83;2.90;;;;;;;;;;3361487;42;20576;-61
2022/08/16 00:11:52;;;;;;;7.68;2.95;;;;;;;;;;3365395;42;20111;-60
2022/08/16 00:14:27;;;;;;;7.07;2.80;;;;;;;;;;3365245;42;20103;-61
2022/08/16 00:16:58;;;;;;;6.90;2.70;;;;;;;;;;3365263;42;20615;-62
2022/08/16 00:19:32;;;;;;;7.65;2.95;;;;;;;;;;3364863;42;20135;-62
2022/08/16 00:22:03;;;;;;;7.67;3.00;;;;;;;;;;3363720;42;20126;-60
2022/08/16 00:24:35;;;;;;;8.98;3.00;;;;;;;;;;3364182;42;20096;-59
2022/08/16 00:27:06;;;;;;;12.27;3.00;;;;;;;;;;3357961;42;20144;-57
2022/08/16 00:29:37;;;;;;;6.72;2.97;;;;;;;;;;3362333;42;20103;-60
2022/08/16 00:32:09;;;;;;;7.38;3.10;;;;;;;;;;3361249;42;20103;-59
2022/08/16 00:34:40;;;;;;;7.03;2.97;;;;;;;;;;3356104;42;20290;-59
2022/08/16 00:37:14;;;;;;;9.60;3.17;;;;;;;;;;3361224;42;20253;-60
2022/08/16 00:39:46;;;;;;;7.00;2.70;;;;;;;;;;3364151;42;20092;-59
2022/08/16 00:42:17;;;;;;;9.07;3.10;;;;;;;;;;3362113;42;20088;-59
2022/08/16 00:44:55;;;;;;;6.95;3.03;;;;;;;;;;3354110;42;20103;-59
2022/08/16 00:47:26;;;;;;;9.23;2.77;;;;;;;;;;3361370;42;20098;-60
2022/08/16 00:49:57;;;;;;;10.20;3.20;;;;;;;;;;3364571;42;20517;-60
2022/08/16 00:52:28;;;;;;;6.43;2.80;;;;;;;;;;3370194;42;20104;-59
2022/08/16 00:54:59;;;;;;;7.75;2.92;;;;;;;;;;3368133;42;20100;-60
2022/08/16 00:57:30;;;;;;;8.82;3.17;;;;;;;;;;3365459;42;20566;-58
2022/08/16 01:00:05;;;;;;;7.27;2.97;;;;;;;;;;3349548;42;20132;-59
2022/08/16 01:02:36;;;;;;;8.05;3.47;;;;;;;;;;3364362;42;20096;-60
2022/08/16 01:05:07;;;;;;;10.55;3.22;;;;;;;;;;3367626;42;20142;-60
2022/08/16 01:07:40;;;;;;;11.00;3.13;;;;;;;;;;3361636;42;20143;-60
2022/08/16 01:10:11;;;;;;;8.95;3.70;;;;;;;;;;3346642;42;20099;-60
2022/08/16 01:12:42;;;;;;;10.80;3.73;;;;;;;;;;3364882;42;20528;-59
2022/08/16 01:15:14;;;;;;;12.00;4.00;;;;;;;;;;3367583;42;20087;-60
2022/08/16 01:17:46;;;;;;;10.93;4.30;;;;;;;;;;3354453;42;20099;-59
2022/08/16 01:20:17;;;;;;;12.38;4.05;;;;;;;;;;3350216;42;20147;-61
2022/08/16 01:23:01;;;;;;;12.40;4.70;;;;;;;;;;3357970;42;20099;-59
2022/08/16 01:25:43;;;;;;;12.87;4.67;;;;;;;;;;3358004;42;20138;-57
2022/08/16 01:28:15;;;;;;;11.90;4.75;;;;;;;;;;3365470;42;20692;-60
2022/08/16 01:30:49;;;;;;;10.18;4.35;;;;;;;;;;3365009;42;20107;-60
2022/08/16 01:33:21;;;;;;;8.20;3.60;;;;;;;;;;3365112;42;20181;-60
2022/08/16 01:36:00;;;;;;;11.68;4.60;;;;;;;;;;3372164;42;20127;-61
2022/08/16 01:38:31;;;;;;;11.73;4.20;;;;;;;;;;3366053;42;20088;-59
2022/08/16 01:41:05;;;;;;;14.82;4.47;;;;;;;;;;3372192;42;20100;-60
2022/08/16 01:43:38;;;;;;;10.27;4.32;;;;;;;;;;3363389;42;20099;-60
2022/08/16 01:46:19;;;;;;;9.52;3.40;;;;;;;;;;3349301;42;20100;-60
2022/08/16 01:48:55;;;;;;;11.18;4.30;;;;;;;;;;3353914;42;20095;-60
2022/08/16 01:51:27;;;;;;;11.30;4.40;;;;;;;;;;3359986;42;20111;-59
2022/08/16 01:53:58;;;;;;;10.48;4.25;;;;;;;;;;3353037;42;20110;-60
2022/08/16 01:56:29;;;;;;;9.95;3.92;;;;;;;;;;3363111;42;20095;-59
2022/08/16 01:59:02;;;;;;;11.70;4.13;;;;;;;;;;3350751;42;20171;-59
2022/08/16 02:01:33;;;;;;;10.40;3.90;;;;;;;;;;3359469;42;20556;-57
2022/08/16 02:04:05;;;;;;;9.83;3.73;;;;;;;;;;3359975;42;20144;-59
2022/08/16 02:06:37;;;;;;;13.07;4.32;;;;;;;;;;3356556;42;20099;-59
2022/08/16 02:09:08;;;;;;;9.93;4.35;;;;;;;;;;3356975;42;20161;-60
2022/08/16 02:11:42;;;;;;;12.45;4.30;;;;;;;;;;3348946;42;20118;-59
2022/08/16 02:14:13;;;;;;;16.45;4.75;;;;;;;;;;3356087;42;20166;-59
2022/08/16 02:16:45;;;;;;;14.20;5.70;;;;;;;;;;3366610;42;20099;-59
2022/08/16 02:19:17;;;;;;;13.80;5.72;;;;;;;;;;3360335;42;20549;-59
2022/08/16 02:21:50;;;;;;;15.57;5.32;;;;;;;;;;3358304;42;20096;-58
2022/08/16 02:24:21;;;;;;;15.10;5.65;;;;;;;;;;3365335;42;20103;-59
2022/08/16 02:26:53;;;;;;;15.23;6.38;;;;;;;;;;3372041;42;20161;-59
2022/08/16 02:29:24;;;;;;;13.97;5.10;;;;;;;;;;3366406;42;20762;-59
2022/08/16 02:31:55;;;;;;;16.52;6.40;;;;;;;;;;3366029;42;20150;-60
2022/08/16 02:34:26;;;;;;;16.15;6.20;;;;;;;;;;3366446;42;21040;-59
2022/08/16 02:36:57;;;;;;;16.17;6.25;;;;;;;;;;3366328;42;20167;-60
2022/08/16 02:39:29;;;;;;;15.30;6.10;;;;;;;;;;3366522;42;20099;-59
2022/08/16 02:42:00;;;;;;;15.00;5.90;;;;;;;;;;3373445;42;20145;-59
2022/08/16 02:44:31;;;;;;;13.70;5.22;;;;;;;;;;3366380;42;20520;-59
2022/08/16 02:47:02;;;;;;;15.05;5.93;;;;;;;;;;3366325;42;20095;-59
2022/08/16 02:49:34;;;;;;;12.18;5.30;;;;;;;;;;3366240;42;20194;-59
2022/08/16 02:52:06;;;;;;;10.93;5.00;;;;;;;;;;3373725;42;20566;-59
2022/08/16 02:54:38;;;;;;;12.03;4.87;;;;;;;;;;3359583;42;20080;-58
2022/08/16 02:57:10;;;;;;;13.18;4.63;;;;;;;;;;3366042;42;20501;-59
2022/08/16 02:59:42;;;;;;;11.55;4.85;;;;;;;;;;3373450;42;20166;-59
2022/08/16 03:02:13;;;;;;;12.07;4.43;;;;;;;;;;3366279;42;20135;-60
2022/08/16 03:04:44;;;;;;;8.77;3.70;;;;;;;;;;3365981;42;20608;-60
2022/08/16 03:07:15;;;;;;;12.77;4.27;;;;;;;;;;3366280;42;20163;-60
2022/08/16 03:09:46;;;;;;;10.60;4.35;;;;;;;;;;3366100;42;20088;-60
2022/08/16 03:12:18;;;;;;;9.18;4.65;;;;;;;;;;3365972;42;20173;-59
2022/08/16 03:14:50;;;;;;;11.77;4.10;;;;;;;;;;3365997;42;20570;-59
2022/08/16 03:17:21;;;;;;;11.68;4.18;;;;;;;;;;3373186;42;20610;-59
2022/08/16 03:19:52;;;;;;;8.93;4.07;;;;;;;;;;3365917;42;20151;-59
2022/08/16 03:22:23;;;;;;;11.50;4.43;;;;;;;;;;3361945;42;20188;-59
2022/08/16 03:24:56;;;;;;;12.75;4.20;;;;;;;;;;3365973;42;20104;-59
2022/08/16 03:27:28;;;;;;;10.90;4.45;;;;;;;;;;3365891;42;20151;-59
2022/08/16 03:30:19;;;;;;;9.27;3.92;;;;;;;;;;3358852;42;20138;-60
2022/08/16 03:32:51;;;;;;;8.70;4.17;;;;;;;;;;3366537;42;20119;-60
2022/08/16 03:35:25;;;;;;;9.23;4.10;;;;;;;;;;3359316;42;20091;-59
2022/08/16 03:37:59;;;;;;;10.85;4.50;;;;;;;;;;3366410;42;20151;-65
2022/08/16 03:40:32;;;;;;;8.15;3.83;;;;;;;;;;3366441;42;20099;-60
2022/08/16 03:43:05;;;;;;;8.75;3.95;;;;;;;;;;3371790;42;20104;-60
2022/08/16 03:45:37;;;;;;;8.40;3.47;;;;;;;;;;3364209;42;20091;-59
2022/08/16 03:48:08;;;;;;;13.60;4.35;;;;;;;;;;3366028;42;20154;-60
2022/08/16 03:50:39;;;;;;;9.32;3.72;;;;;;;;;;3371406;42;20534;-59
2022/08/16 03:53:10;;;;;;;8.48;3.70;;;;;;;;;;3371188;42;20096;-59
2022/08/16 03:55:41;;;;;;;7.75;3.83;;;;;;;;;;3361811;42;20139;-60
2022/08/16 03:58:13;;;;;;;8.33;3.60;;;;;;;;;;3372879;42;20149;-60
2022/08/16 04:00:44;;;;;;;7.43;3.25;;;;;;;;;;3356741;42;20088;-61
2022/08/16 04:03:15;;;;;;;7.45;3.38;;;;;;;;;;3356784;42;20151;-60
2022/08/16 04:05:47;;;;;;;9.52;4.05;;;;;;;;;;3366327;42;20230;-60
2022/08/16 04:08:20;;;;;;;7.30;3.80;;;;;;;;;;3358904;42;20490;-60
2022/08/16 04:10:52;;;;;;;9.73;3.80;;;;;;;;;;3360622;42;20161;-60
2022/08/16 04:13:24;;;;;;;7.78;3.45;;;;;;;;;;3350845;42;20520;-60
2022/08/16 04:15:58;;;;;;;9.60;3.38;;;;;;;;;;3360685;42;20494;-60
2022/08/16 04:18:30;;;;;;;8.10;3.50;;;;;;;;;;3359311;42;20096;-60
2022/08/16 04:21:01;;;;;;;7.18;3.30;;;;;;;;;;3370469;42;20110;-59
2022/08/16 04:23:32;;;;;;;7.93;4.07;;;;;;;;;;3372644;42;20151;-61
2022/08/16 04:26:06;;;;;;;8.88;3.60;;;;;;;;;;3370544;42;20147;-60
2022/08/16 04:28:37;;;;;;;10.82;3.60;;;;;;;;;;3360025;42;20100;-60
2022/08/16 04:31:10;;;;;;;9.38;3.42;;;;;;;;;;3368392;42;20114;-60
2022/08/16 04:33:41;;;;;;;8.18;3.40;;;;;;;;;;3372589;42;20092;-61
2022/08/16 04:36:12;;;;;;;8.90;3.50;;;;;;;;;;3375165;42;20100;-58
2022/08/16 04:38:43;;;;;;;8.13;3.15;;;;;;;;;;3352515;42;20092;-60
2022/08/16 04:41:14;;;;;;;8.52;3.30;;;;;;;;;;3363047;42;20114;-59
2022/08/16 04:43:46;;;;;;;8.82;3.40;;;;;;;;;;3360508;42;20103;-59
2022/08/16 04:46:17;;;;;;;7.50;3.10;;;;;;;;;;3358125;42;20554;-60
2022/08/16 04:48:48;;;;;;;9.27;3.47;;;;;;;;;;3362561;42;20154;-60
2022/08/16 04:51:19;;;;;;;9.65;3.50;;;;;;;;;;3372104;42;20092;-59
2022/08/16 04:53:51;;;;;;;8.23;3.70;;;;;;;;;;3352401;42;20556;-60
2022/08/16 04:56:22;;;;;;;8.50;3.42;;;;;;;;;;3357933;42;20558;-59
2022/08/16 04:58:53;;;;;;;8.18;3.40;;;;;;;;;;3357190;42;20556;-59
2022/08/16 05:01:24;;;;;;;12.20;3.30;;;;;;;;;;3356972;42;20099;-60
2022/08/16 05:03:55;;;;;;;8.75;3.30;;;;;;;;;;3358383;42;20100;-61
2022/08/16 05:06:27;;;;;;;6.18;3.20;;;;;;;;;;3367328;42;20123;-61
2022/08/16 05:08:58;;;;;;;7.97;3.05;;;;;;;;;;3360319;42;20096;-62
2022/08/16 05:11:30;;;;;;;8.57;3.50;;;;;;;;;;3360831;42;20095;-59
2022/08/16 05:14:01;;;;;;;7.43;3.50;;;;;;;;;;3368360;42;20087;-59
2022/08/16 05:16:32;;;;;;;6.20;3.10;;;;;;;;;;3359418;42;20625;-60
2022/08/16 05:19:05;;;;;;;10.00;3.42;;;;;;;;;;3358878;42;20096;-58
2022/08/16 05:21:37;;;;;;;8.63;3.60;;;;;;;;;;3362171;42;20103;-60
2022/08/16 05:24:08;;;;;;;8.98;3.38;;;;;;;;;;3366694;42;20103;-58
2022/08/16 05:26:39;;;;;;;9.07;3.50;;;;;;;;;;3359022;42;20571;-61
2022/08/16 05:29:10;;;;;;;9.98;3.80;;;;;;;;;;3362351;42;20117;-59
2022/08/16 05:31:42;;;;;;;10.32;3.33;;;;;;;;;;3356165;42;20096;-59
2022/08/16 05:34:13;;;;;;;7.50;3.10;;;;;;;;;;3362372;42;20102;-60
2022/08/16 05:36:44;;;;;;;10.00;3.58;;;;;;;;;;3364887;42;20150;-59
2022/08/16 05:39:15;;;;;;;11.03;3.23;;;;;;;;;;3364330;42;20106;-59
2022/08/16 05:41:46;;;;;;;6.82;3.00;;;;;;;;;;3364195;42;20584;-59
2022/08/16 05:44:18;;;;;;;7.05;3.20;;;;;;;;;;3358687;42;20100;-59
2022/08/16 05:46:54;;;;;;;7.15;3.00;;;;;;;;;;3364442;42;20096;-59
2022/08/16 05:49:27;;;;;;;7.95;3.10;;;;;;;;;;3364912;42;20091;-61
2022/08/16 05:51:58;;;;;;;9.13;3.27;;;;;;;;;;3364478;42;20861;-60
2022/08/16 05:54:30;;;;;;;7.93;3.30;;;;;;;;;;3362902;42;20098;-60
2022/08/16 05:57:01;;;;;;;6.70;3.20;;;;;;;;;;3358998;42;20099;-63
2022/08/16 05:59:32;;;;;;;9.52;3.67;;;;;;;;;;3360063;42;20140;-61
2022/08/16 06:02:04;;;;;;;9.52;3.80;;;;;;;;;;3366119;42;20148;-60
2022/08/16 06:04:35;;;;;;;10.30;3.73;;;;;;;;;;3371707;42;20139;-60
2022/08/16 06:07:07;;;;;;;9.07;3.22;;;;;;;;;;3364414;42;20697;-60
2022/08/16 06:09:38;;;;;;;6.97;3.05;;;;;;;;;;3366197;42;20084;-62
2022/08/16 06:12:13;;;;;;;7.57;3.42;;;;;;;;;;3364370;42;20103;-61
2022/08/16 06:14:44;;;;;;;7.13;3.10;;;;;;;;;;3358377;42;20190;-60
2022/08/16 06:17:15;;;;;;;7.27;3.00;;;;;;;;;;3371846;42;20095;-60
2022/08/16 06:19:46;;;;;;;7.30;3.00;;;;;;;;;;3371291;42;20530;-61
2022/08/16 06:22:17;;;;;;;8.73;3.25;;;;;;;;;;3372059;42;20092;-59
2022/08/16 06:24:49;;;;;;;7.40;3.08;;;;;;;;;;3364441;42;20122;-60
2022/08/16 06:27:21;;;;;;;6.38;2.95;;;;;;;;;;3360861;42;20555;-61
2022/08/16 06:29:52;;;;;;;7.47;3.40;;;;;;;;;;3359469;42;20533;-59
2022/08/16 06:32:23;;;;;;;8.40;3.30;;;;;;;;;;3360496;42;20084;-60
2022/08/16 06:34:54;;;;;;;8.60;3.28;;;;;;;;;;3360825;42;20216;-60
2022/08/16 06:37:25;;;;;;;8.93;3.17;;;;;;;;;;3360993;42;20096;-60
2022/08/16 06:39:56;;;;;;;6.22;3.10;;;;;;;;;;3361751;42;20558;-60
2022/08/16 06:42:28;;;;;;;7.63;3.10;;;;;;;;;;3357721;42;20099;-59
2022/08/16 06:44:59;;;;;;;7.07;3.10;;;;;;;;;;3359196;42;20095;-60
2022/08/16 06:47:30;;;;;;;9.02;3.22;;;;;;;;;;3361508;42;20104;-60
2022/08/16 06:50:01;;;;;;;16.70;3.80;;;;;;;;;;3365601;42;20182;-59
2022/08/16 06:52:35;;;;;;;10.77;2.97;;;;;;;;;;3368249;42;20099;-60
2022/08/16 06:55:07;;;;;;;5.90;3.00;;;;;;;;;;3367495;42;20088;-59
2022/08/16 06:57:38;;;;;;;9.23;3.85;;;;;;;;;;3354911;42;20100;-59
2022/08/16 07:00:13;;;;;;;8.98;3.10;;;;;;;;;;3369036;42;20103;-60
2022/08/16 07:02:45;;;;;;;6.70;3.40;;;;;;;;;;3367636;42;20100;-61
2022/08/16 07:05:16;;;;;;;7.65;2.80;;;;;;;;;;3364913;42;20137;-61
2022/08/16 07:07:48;;;;;;;9.33;3.10;;;;;;;;;;3364481;42;20092;-60
2022/08/16 07:10:19;;;;;;;6.78;3.00;;;;;;;;;;3369002;42;20160;-60
2022/08/16 07:12:52;;;;;;;8.45;3.35;;;;;;;;;;3364518;42;20111;-60
2022/08/16 07:15:23;;;;;;;7.70;3.00;;;;;;;;;;3365814;42;20107;-60
2022/08/16 07:17:54;;;;;;;8.20;3.20;;;;;;;;;;3365564;42;20100;-60
2022/08/16 07:20:27;;;;;;;13.17;3.20;;;;;;;;;;3365637;42;20523;-56
2022/08/16 07:22:58;;;;;;;8.10;3.08;;;;;;;;;;3365570;42;20115;-59
2022/08/16 07:25:29;;;;;;;6.80;3.28;;;;;;;;;;3360852;42;20734;-61
2022/08/16 07:28:00;;;;;;;7.05;3.15;;;;;;;;;;3365650;42;20096;-61
2022/08/16 07:30:32;;;;;;;8.02;3.17;;;;;;;;;;3358577;42;20087;-61
2022/08/16 07:33:04;;;;;;;7.97;3.20;;;;;;;;;;3349672;42;20582;-59
2022/08/16 07:35:36;;;;;;;8.43;2.95;;;;;;;;;;3353983;42;20095;-62
2022/08/16 07:38:07;;;;;;;7.75;2.90;;;;;;;;;;3370050;42;20630;-60
2022/08/16 07:40:39;;;;;;;7.38;3.25;;;;;;;;;;3367484;42;20175;-59
2022/08/16 07:43:10;;;;;;;7.05;2.95;;;;;;;;;;3365233;42;20859;-60
2022/08/16 07:45:41;;;;;;;6.43;3.10;;;;;;;;;;3365275;42;20199;-61
2022/08/16 07:48:12;;;;;;;8.65;3.17;;;;;;;;;;3363933;42;20182;-59
2022/08/16 07:50:44;;;;;;;7.65;2.65;;;;;;;;;;3363289;42;20111;-59
2022/08/16 07:53:15;;;;;;;7.53;2.90;;;;;;;;;;3361022;42;20154;-60
2022/08/16 07:55:47;;;;;;;7.95;3.13;;;;;;;;;;3364953;42;20651;-59
2022/08/16 07:58:19;;;;;;;10.47;3.00;;;;;;;;;;3365019;42;20139;-59
2022/08/16 08:00:50;;;;;;;8.82;3.08;;;;;;;;;;3364659;42;20106;-60
2022/08/16 08:03:21;;;;;;;6.30;3.08;;;;;;;;;;3364653;42;20102;-59
2022/08/16 08:05:53;;;;;;;7.68;2.85;;;;;;;;;;3357292;42;20174;-60
2022/08/16 08:08:25;;;;;;;8.00;3.33;;;;;;;;;;3367420;42;20493;-59
2022/08/16 08:10:56;;;;;;;6.83;2.80;;;;;;;;;;3364325;42;20636;-60
2022/08/16 08:13:28;;;;;;;6.75;2.90;;;;;;;;;;3364947;42;20605;-59
2022/08/16 08:15:59;;;;;;;8.27;2.90;;;;;;;;;;3364527;42;20117;-61
2022/08/16 08:18:30;;;;;;;7.43;3.40;;;;;;;;;;3364948;42;20111;-58
2022/08/16 08:21:01;;;;;;;6.03;3.00;;;;;;;;;;3364958;42;20106;-59
2022/08/16 08:23:35;;;;;;;10.60;2.90;;;;;;;;;;3365041;42;20130;-59
2022/08/16 08:26:06;;;;;;;7.35;2.92;;;;;;;;;;3372334;42;20095;-57
2022/08/16 08:28:38;;;;;;;9.82;3.03;;;;;;;;;;3365371;42;20131;-59
2022/08/16 08:31:09;;;;;;;7.45;2.80;;;;;;;;;;3364876;42;20099;-58
2022/08/16 08:33:40;;;;;;;6.93;3.10;;;;;;;;;;3365177;42;20095;-59
2022/08/16 08:36:14;;;;;;;7.63;3.20;;;;;;;;;;3365080;42;20102;-57
2022/08/16 08:38:45;;;;;;;6.80;2.95;;;;;;;;;;3360525;42;20080;-58
2022/08/16 08:41:17;;;;;;;6.45;2.85;;;;;;;;;;3365069;42;20147;-59
2022/08/16 08:43:48;;;;;;;6.28;3.10;;;;;;;;;;3365100;42;20095;-58
2022/08/16 08:46:20;;;;;;;9.07;3.03;;;;;;;;;;3372103;42;20092;-59
2022/08/16 08:48:52;;;;;;;7.47;2.93;;;;;;;;;;3357993;42;20537;-58
2022/08/16 08:51:24;;;;;;;6.78;2.90;;;;;;;;;;3365068;42;20147;-60
2022/08/16 08:53:55;;;;;;;8.45;3.05;;;;;;;;;;3366327;42;20131;-58
2022/08/16 08:56:31;;;;;;;9.38;3.17;;;;;;;;;;3366320;42;20095;-60
2022/08/16 08:59:05;;;;;;;7.10;3.10;;;;;;;;;;3371979;42;20601;-58
2022/08/16 09:01:37;;;;;;;6.83;3.00;;;;;;;;;;3359717;42;20923;-58
2022/08/16 09:04:09;;;;;;;9.10;3.20;;;;;;;;;;3359715;42;20151;-58
2022/08/16 09:06:41;;;;;;;7.95;3.20;;;;;;;;;;3363382;42;20104;-59
2022/08/16 09:09:12;;;;;;;7.65;3.00;;;;;;;;;;3364097;42;20562;-60
2022/08/16 09:11:44;;;;;;;8.25;3.30;;;;;;;;;;3364012;42;20483;-59
2022/08/16 09:14:15;;;;;;;6.93;2.80;;;;;;;;;;3363280;42;20604;-61
2022/08/16 09:16:46;;;;;;;9.25;3.33;;;;;;;;;;3355971;42;20123;-60
2022/08/16 09:19:18;;;;;;;7.45;3.20;;;;;;;;;;3357999;42;20155;-60
2022/08/16 09:21:49;;;;;;;7.53;3.03;;;;;;;;;;3357642;42;20170;-58
2022/08/16 09:24:20;;;;;;;7.43;3.03;;;;;;;;;;3357838;42;20095;-58
2022/08/16 09:26:52;;;;;;;6.83;2.90;;;;;;;;;;3366955;42;20084;-59
2022/08/16 09:29:23;;;;;;;7.43;3.17;;;;;;;;;;3358174;42;20104;-60
2022/08/16 09:31:56;;;;;;;8.50;3.08;;;;;;;;;;3364528;42;20100;-60
2022/08/16 09:34:28;;;;;;;8.68;3.25;;;;;;;;;;3351658;42;20143;-59
2022/08/16 09:36:59;;;;;;;8.32;3.15;;;;;;;;;;3359227;42;20096;-59
2022/08/16 09:39:30;;;;;;;8.50;3.30;;;;;;;;;;3359547;42;20389;-60
2022/08/16 09:42:02;;;;;;;10.23;3.35;;;;;;;;;;3363563;42;20088;-60
2022/08/16 09:44:34;;;;;;;8.10;3.00;;;;;;;;;;3363383;42;20096;-59
2022/08/16 09:47:06;;;;;;;6.03;2.88;;;;;;;;;;3358555;42;20096;-59
2022/08/16 09:49:37;;;;;;;7.20;3.10;;;;;;;;;;3359658;42;20096;-59
2022/08/16 09:52:09;;;;;;;6.40;3.00;;;;;;;;;;3362647;42;20138;-59
2022/08/16 09:54:40;;;;;;;6.32;2.80;;;;;;;;;;3352473;42;20607;-61
2022/08/16 09:57:11;;;;;;;7.07;3.00;;;;;;;;;;3369659;42;20143;-59
2022/08/16 09:59:42;;;;;;;6.40;3.05;;;;;;;;;;3361244;42;20147;-59
2022/08/16 10:02:13;;;;;;;6.10;2.80;;;;;;;;;;3358614;42;20150;-59
2022/08/16 10:04:44;;;;;;;6.97;2.70;;;;;;;;;;3362992;42;20293;-60
2022/08/16 10:07:16;;;;;;;7.20;2.90;;;;;;;;;;3367796;42;20107;-59
2022/08/16 10:09:48;;;;;;;6.60;2.70;;;;;;;;;;3360986;42;20139;-59
2022/08/16 10:15:14;;;;;;;10.02;3.03;;;;;;;;;;3372326;42;20546;-58
2022/08/16 10:17:46;;;;;;;6.73;2.67;;;;;;;;;;3367232;42;20573;-59
2022/08/16 10:20:18;;;;;;;6.88;2.60;;;;;;;;;;3353972;42;20110;-59
2022/08/16 10:22:49;;;;;;;5.65;2.75;;;;;;;;;;3358753;42;20170;-59
2022/08/16 10:25:20;;;;;;;9.15;2.67;;;;;;;;;;3368834;42;20088;-59
2022/08/16 10:27:51;;;;;;;8.02;2.83;;;;;;;;;;3368863;42;20182;-59
2022/08/16 10:30:22;;;;;;;6.57;3.07;;;;;;;;;;3360759;42;20111;-58
2022/08/16 10:32:54;;;;;;;7.07;2.70;;;;;;;;;;3360328;42;20079;-58
2022/08/16 10:35:25;;;;;;;7.30;3.10;;;;;;;;;;3361522;42;20170;-54
2022/08/16 10:37:56;;;;;;;6.32;2.40;;;;;;;;;;3360496;42;20097;-61
2022/08/16 10:40:27;;;;;;;5.68;2.35;;;;;;;;;;3363372;42;20099;-60
2022/08/16 10:42:59;;;;;;;6.57;2.80;;;;;;;;;;3367258;42;20127;-59
2022/08/16 10:45:31;;;;;;;5.72;2.53;;;;;;;;;;3363916;42;20083;-60
2022/08/16 10:48:02;;;;;;;7.60;3.00;;;;;;;;;;3362781;42;20100;-60
2022/08/16 10:50:35;;;;;;;8.75;2.65;;;;;;;;;;3363281;42;20087;-60
2022/08/16 10:53:06;;;;;;;9.05;2.70;;;;;;;;;;3360052;42;20122;-60
2022/08/16 10:55:38;;;;;;;5.53;2.57;;;;;;;;;;3361686;42;20131;-60
2022/08/16 10:58:12;;;;;;;6.97;2.65;;;;;;;;;;3354235;42;20170;-60
2022/08/16 11:00:44;;;;;;;6.82;2.55;;;;;;;;;;3360716;42;20147;-60
2022/08/16 11:03:15;;;;;;;6.10;2.50;;;;;;;;;;3369515;42;20570;-61
2022/08/16 11:05:46;;;;;;;7.30;2.67;;;;;;;;;;3363003;42;20106;-60
2022/08/16 11:08:18;;;;;;;6.07;2.50;;;;;;;;;;3372045;42;20100;-61
2022/08/16 11:10:49;;;;;;;7.07;2.60;;;;;;;;;;3363885;42;20565;-59
2022/08/16 11:13:21;;;;;;;7.47;2.72;;;;;;;;;;3363502;42;20116;-59
2022/08/16 11:15:55;;;;;;;5.45;2.45;;;;;;;;;;3367840;42;20189;-60
2022/08/16 11:18:28;;;;;;;6.68;2.58;;;;;;;;;;3363744;42;20100;-59
2022/08/16 11:20:59;;;;;;;9.40;2.70;;;;;;;;;;3362649;42;20206;-60
2022/08/16 11:23:31;;;;;;;6.55;2.60;;;;;;;;;;3360563;42;20107;-62
2022/08/16 11:26:02;;;;;;;6.15;2.50;;;;;;;;;;3363266;42;20096;-60
2022/08/16 11:28:34;;;;;;;6.53;2.72;;;;;;;;;;3364388;42;20502;-59
2022/08/16 11:31:05;;;;;;;8.73;2.60;;;;;;;;;;3372843;42;20119;-60
2022/08/16 11:33:37;;;;;;;8.57;2.43;;;;;;;;;;3358473;42;20227;-60
2022/08/16 11:36:08;;;;;;;7.13;2.50;;;;;;;;;;3365210;42;20104;-59
2022/08/16 11:38:39;;;;;;;7.30;2.58;;;;;;;;;;3361829;42;20138;-60
2022/08/16 11:41:11;;;;;;;8.80;3.17;;;;;;;;;;3364828;42;20151;-60
2022/08/16 11:43:42;;;;;;;6.88;2.70;;;;;;;;;;3365033;42;20427;-59
2022/08/16 11:46:15;;;;;;;6.00;2.40;;;;;;;;;;3360739;42;20184;-59
2022/08/16 11:48:47;;;;;;;7.82;2.50;;;;;;;;;;3360446;42;20098;-60
2022/08/16 11:51:18;;;;;;;6.38;2.80;;;;;;;;;;3361177;42;20573;-58
2022/08/16 11:53:49;;;;;;;7.40;2.53;;;;;;;;;;3367560;42;20091;-59
2022/08/16 11:56:21;;;;;;;9.85;2.60;;;;;;;;;;3354066;42;20091;-60
2022/08/16 11:58:52;;;;;;;7.17;2.70;;;;;;;;;;3359481;42;20087;-60
2022/08/16 12:01:23;;;;;;;6.65;2.63;;;;;;;;;;3361836;42;20091;-60
2022/08/16 12:03:55;;;;;;;5.68;2.40;;;;;;;;;;3359281;42;20525;-61
2022/08/16 12:06:26;;;;;;;5.85;2.40;;;;;;;;;;3367706;42;20102;-59
2022/08/16 12:08:59;;;;;;;6.32;2.30;;;;;;;;;;3359461;42;20096;-61
2022/08/16 12:11:31;;;;;;;6.33;2.60;;;;;;;;;;3366899;42;20118;-60
2022/08/16 12:14:03;;;;;;;5.97;2.60;;;;;;;;;;3349237;42;20118;-59
2022/08/16 12:16:35;;;;;;;7.18;2.38;;;;;;;;;;3367447;42;20092;-60
2022/08/16 12:19:07;;;;;;;5.65;2.40;;;;;;;;;;3371956;42;20516;-58
2022/08/16 12:21:38;;;;;;;7.40;2.50;;;;;;;;;;3359963;42;20087;-60
2022/08/16 12:24:09;;;;;;;6.50;2.53;;;;;;;;;;3372087;42;20226;-60
2022/08/16 12:26:40;;;;;;;7.15;2.80;;;;;;;;;;3349962;42;20557;-61
2022/08/16 12:29:11;;;;;;;6.75;2.40;;;;;;;;;;3359575;42;20095;-61
2022/08/16 12:31:42;;;;;;;9.35;2.97;;;;;;;;;;3357847;42;20115;-59
2022/08/16 12:34:14;;;;;;;9.95;2.67;;;;;;;;;;3359571;42;20162;-60
2022/08/16 12:36:45;;;;;;;6.90;2.70;;;;;;;;;;3367348;42;20094;-60
2022/08/16 12:39:19;;;;;;;6.35;2.75;;;;;;;;;;3360216;42;20103;-61
2022/08/16 12:41:51;;;;;;;6.07;2.85;;;;;;;;;;3359373;42;20108;-60
2022/08/16 12:44:24;;;;;;;20.50;3.10;;;;;;;;;;3365768;42;20189;-60
2022/08/16 12:49:45;;;;;;;7.83;2.90;;;;;;;;;;3367075;42;20092;-58
2022/08/16 12:52:16;;;;;;;6.03;2.70;;;;;;;;;;3358328;42;20108;-59
2022/08/16 12:54:47;;;;;;;6.85;2.50;;;;;;;;;;3362503;42;20525;-61
2022/08/16 12:57:18;;;;;;;6.72;2.50;;;;;;;;;;3365070;42;20095;-58
2022/08/16 12:59:53;;;;;;;6.72;2.50;;;;;;;;;;3364922;42;20110;-60
2022/08/16 13:02:24;;;;;;;7.33;2.67;;;;;;;;;;3361769;42;20100;-60
2022/08/16 13:04:55;;;;;;;5.38;2.30;;;;;;;;;;3365693;42;20096;-61
2022/08/16 13:07:26;;;;;;;7.93;2.40;;;;;;;;;;3357948;42;20507;-60
2022/08/16 13:10:07;;;;;;;6.60;2.78;;;;;;;;;;3363637;42;20111;-58
2022/08/16 13:12:42;;;;;;;6.95;2.58;;;;;;;;;;3356319;42;20643;-59
2022/08/16 13:15:15;;;;;;;8.63;2.30;;;;;;;;;;3361238;42;20137;-60
2022/08/16 13:17:46;;;;;;;7.93;2.63;;;;;;;;;;3367184;42;20616;-59
2022/08/16 13:20:21;;;;;;;8.50;2.70;;;;;;;;;;3367329;42;20095;-58
2022/08/16 13:22:57;;;;;;;7.43;2.50;;;;;;;;;;3354538;42;20099;-61
2022/08/16 13:25:28;;;;;;;5.78;2.70;;;;;;;;;;3362345;42;20111;-59
2022/08/16 13:28:00;;;;;;;6.53;2.40;;;;;;;;;;3364425;42;20184;-60
2022/08/16 13:30:47;;;;;;;6.25;2.70;;;;;;;;;;3371363;42;20108;-60
2022/08/16 13:33:24;;;;;;;7.80;2.90;;;;;;;;;;3358049;42;20605;-63
2022/08/16 13:35:57;;;;;;;9.82;2.60;;;;;;;;;;3362300;42;20131;-62
2022/08/16 13:38:28;;;;;;;5.60;2.60;;;;;;;;;;3351371;42;20108;-59
2022/08/16 13:41:01;;;;;;;6.37;2.70;;;;;;;;;;3359332;42;20108;-60
2022/08/16 13:43:32;;;;;;;7.85;2.60;;;;;;;;;;3358406;42;20605;-61
2022/08/16 13:46:04;;;;;;;6.22;2.88;;;;;;;;;;3363283;42;20622;-61
2022/08/16 13:48:35;;;;;;;6.72;2.80;;;;;;;;;;3369313;42;20138;-61
2022/08/16 13:51:06;;;;;;;6.18;2.90;;;;;;;;;;3367856;42;20104;-62
2022/08/16 13:53:38;;;;;;;10.97;2.97;;;;;;;;;;3367959;42;20092;-60
2022/08/16 13:56:09;;;;;;;7.25;2.63;;;;;;;;;;3362233;42;20100;-60
2022/08/16 13:58:40;;;;;;;6.25;2.50;;;;;;;;;;3363450;42;20650;-61
2022/08/16 14:01:11;;;;;;;7.70;2.50;;;;;;;;;;3362764;42;20621;-60
2022/08/16 14:03:43;;;;;;;5.88;2.50;;;;;;;;;;3349115;42;20095;-60
2022/08/16 14:06:14;;;;;;;6.93;2.40;;;;;;;;;;3364813;42;20179;-60
2022/08/16 14:08:45;;;;;;;5.65;2.70;;;;;;;;;;3366681;42;20083;-62
2022/08/16 14:11:16;;;;;;;5.85;2.47;;;;;;;;;;3364180;42;20178;-62
2022/08/16 14:13:48;;;;;;;7.50;2.85;;;;;;;;;;3356680;42;20092;-60
2022/08/16 14:16:19;;;;;;;6.75;2.55;;;;;;;;;;3366719;42;20127;-61
2022/08/16 14:18:51;;;;;;;8.00;2.47;;;;;;;;;;3361615;42;20300;-62
2022/08/16 14:21:23;;;;;;;7.35;2.75;;;;;;;;;;3370055;42;20212;-61
2022/08/16 14:23:54;;;;;;;6.88;2.60;;;;;;;;;;3362763;42;20170;-61
2022/08/16 14:26:25;;;;;;;7.43;2.72;;;;;;;;;;3362198;42;20088;-60
2022/08/16 14:28:56;;;;;;;6.70;2.50;;;;;;;;;;3369043;42;20158;-61
2022/08/16 14:31:27;;;;;;;8.43;2.80;;;;;;;;;;3362127;42;20092;-62
2022/08/16 14:33:59;;;;;;;6.78;2.63;;;;;;;;;;3363361;42;20088;-61
2022/08/16 14:36:31;;;;;;;8.23;2.60;;;;;;;;;;3369588;42;20106;-61
2022/08/16 14:39:02;;;;;;;7.85;2.75;;;;;;;;;;3357735;42;20090;-61
2022/08/16 14:41:33;;;;;;;7.88;2.90;;;;;;;;;;3370169;42;20099;-60
2022/08/16 14:44:05;;;;;;;7.13;2.80;;;;;;;;;;3373649;42;20155;-61
2022/08/16 14:46:37;;;;;;;9.02;2.90;;;;;;;;;;3357535;42;20088;-62
2022/08/16 14:49:08;;;;;;;7.25;2.78;;;;;;;;;;3357375;42;20092;-60
2022/08/16 14:51:39;;;;;;;6.60;2.70;;;;;;;;;;3357089;42;20143;-62
2022/08/16 14:54:10;;;;;;;7.90;2.95;;;;;;;;;;3362983;42;20150;-62
2022/08/16 14:56:42;;;;;;;7.07;3.03;;;;;;;;;;3357180;42;20525;-60
2022/08/16 14:59:13;;;;;;;7.70;3.08;;;;;;;;;;3369501;42;20107;-60
2022/08/16 15:01:44;;;;;;;10.13;3.30;;;;;;;;;;3361936;42;20720;-61
2022/08/16 15:04:15;;;;;;;7.45;3.10;;;;;;;;;;3361167;42;20147;-61
2022/08/16 15:06:47;;;;;;;6.97;3.30;;;;;;;;;;3359929;42;20111;-61
2022/08/16 15:09:18;;;;;;;8.47;3.00;;;;;;;;;;3348844;42;20582;-60
2022/08/16 15:11:49;;;;;;;9.27;3.53;;;;;;;;;;3369487;42;20099;-61
2022/08/16 15:14:20;;;;;;;8.50;3.00;;;;;;;;;;3360660;42;20151;-61